sensor_id;sensor_type;location;lat;lon;timestamp;temperature;humidity
12477;DHT22;6303;51.504;6.300;2022-10-26T00:00:46;22.90;85.80
12477;DHT22;6303;51.504;6.300;2022-10-26T00:03:13;22.80;85.80
12477;DHT22;6303;51.504;6.300;2022-10-26T00:05:41;22.80;85.70
12477;DHT22;6303;51.504;6.300;2022-10-26T00:08:09;22.80;85.80
12477;DHT22;6303;51.504;6.300;2022-10-26T00:10:37;22.80;85.80
12477;DHT22;6303;51.504;6.300;2022-10-26T00:13:09;22.80;85.90
12477;DHT22;6303;51.504;6.300;2022-10-26T00:15:39;22.80;85.80
12477;DHT22;6303;51.504;6.300;2022-10-26T00:18:07;22.80;85.70
12477;DHT22;6303;51.504;6.300;2022-10-26T00:20:34;22.80;85.70
12477;DHT22;6303;51.504;6.300;2022-10-26T00:23:01;22.80;85.60
12477;DHT22;6303;51.504;6.300;2022-10-26T00:25:28;22.80;85.70
12477;DHT22;6303;51.504;6.300;2022-10-26T00:27:55;22.80;85.70
12477;DHT22;6303;51.504;6.300;2022-10-26T00:30:24;22.80;85.60
12477;DHT22;6303;51.504;6.300;2022-10-26T00:32:51;22.80;85.70
12477;DHT22;6303;51.504;6.300;2022-10-26T00:35:18;22.80;85.70
12477;DHT22;6303;51.504;6.300;2022-10-26T00:37:45;20.00;83.80
12477;DHT22;6303;51.504;6.300;2022-10-26T00:40:12;22.80;85.60
12477;DHT22;6303;51.504;6.300;2022-10-26T00:42:39;22.80;85.60
12477;DHT22;6303;51.504;6.300;2022-10-26T00:45:17;22.80;85.50
12477;DHT22;6303;51.504;6.300;2022-10-26T00:47:48;22.80;85.50
12477;DHT22;6303;51.504;6.300;2022-10-26T00:50:19;22.80;85.50
12477;DHT22;6303;51.504;6.300;2022-10-26T00:52:48;22.80;85.70
12477;DHT22;6303;51.504;6.300;2022-10-26T00:55:17;22.80;85.60
12477;DHT22;6303;51.504;6.300;2022-10-26T00:57:46;22.80;85.80
12477;DHT22;6303;51.504;6.300;2022-10-26T01:00:14;22.80;85.80
12477;DHT22;6303;51.504;6.300;2022-10-26T01:02:42;22.80;85.70
12477;DHT22;6303;51.504;6.300;2022-10-26T01:05:13;22.80;85.70
12477;DHT22;6303;51.504;6.300;2022-10-26T01:07:41;22.80;85.80
12477;DHT22;6303;51.504;6.300;2022-10-26T01:10:09;22.90;85.70
12477;DHT22;6303;51.504;6.300;2022-10-26T01:12:39;22.90;85.70
12477;DHT22;6303;51.504;6.300;2022-10-26T01:15:07;22.80;85.60
12477;DHT22;6303;51.504;6.300;2022-10-26T01:17:47;22.80;85.70
12477;DHT22;6303;51.504;6.300;2022-10-26T01:23:40;22.80;85.90
12477;DHT22;6303;51.504;6.300;2022-10-26T01:26:33;22.80;85.80
12477;DHT22;6303;51.504;6.300;2022-10-26T01:29:19;22.80;85.60
12477;DHT22;6303;51.504;6.300;2022-10-26T01:31:55;22.80;85.60
12477;DHT22;6303;51.504;6.300;2022-10-26T01:34:32;22.80;85.50
12477;DHT22;6303;51.504;6.300;2022-10-26T01:37:04;22.80;85.40
12477;DHT22;6303;51.504;6.300;2022-10-26T01:39:37;22.80;85.40
12477;DHT22;6303;51.504;6.300;2022-10-26T01:42:07;22.80;85.60
12477;DHT22;6303;51.504;6.300;2022-10-26T01:44:37;22.80;85.70
12477;DHT22;6303;51.504;6.300;2022-10-26T01:47:10;22.80;86.50
12477;DHT22;6303;51.504;6.300;2022-10-26T01:49:42;22.80;85.70
12477;DHT22;6303;51.504;6.300;2022-10-26T01:52:10;22.80;85.90
12477;DHT22;6303;51.504;6.300;2022-10-26T01:54:37;22.80;85.90
12477;DHT22;6303;51.504;6.300;2022-10-26T01:57:07;22.80;86.00
12477;DHT22;6303;51.504;6.300;2022-10-26T01:59:47;22.80;85.90
12477;DHT22;6303;51.504;6.300;2022-10-26T02:02:43;22.80;86.00
12477;DHT22;6303;51.504;6.300;2022-10-26T02:05:32;22.80;86.00
12477;DHT22;6303;51.504;6.300;2022-10-26T02:08:17;22.80;86.00
12477;DHT22;6303;51.504;6.300;2022-10-26T02:10:56;22.80;86.00
12477;DHT22;6303;51.504;6.300;2022-10-26T02:13:30;22.80;86.10
12477;DHT22;6303;51.504;6.300;2022-10-26T02:16:05;22.80;86.10
12477;DHT22;6303;51.504;6.300;2022-10-26T02:18:42;22.80;86.00
12477;DHT22;6303;51.504;6.300;2022-10-26T02:21:16;22.80;85.90
12477;DHT22;6303;51.504;6.300;2022-10-26T02:23:46;22.80;85.90
12477;DHT22;6303;51.504;6.300;2022-10-26T02:26:17;21.40;84.80
12477;DHT22;6303;51.504;6.300;2022-10-26T02:28:48;20.50;84.80
12477;DHT22;6303;51.504;6.300;2022-10-26T02:31:17;22.80;85.60
12477;DHT22;6303;51.504;6.300;2022-10-26T02:33:48;22.80;85.70
12477;DHT22;6303;51.504;6.300;2022-10-26T02:36:22;22.80;85.30
12477;DHT22;6303;51.504;6.300;2022-10-26T02:38:52;22.80;85.50
12477;DHT22;6303;51.504;6.300;2022-10-26T02:41:21;22.80;85.40
12477;DHT22;6303;51.504;6.300;2022-10-26T02:43:53;22.80;85.50
12477;DHT22;6303;51.504;6.300;2022-10-26T02:46:24;22.80;85.40
12477;DHT22;6303;51.504;6.300;2022-10-26T02:48:54;22.80;85.30
12477;DHT22;6303;51.504;6.300;2022-10-26T02:51:27;22.80;85.20
12477;DHT22;6303;51.504;6.300;2022-10-26T02:53:59;22.80;85.20
12477;DHT22;6303;51.504;6.300;2022-10-26T02:56:29;22.80;85.20
12477;DHT22;6303;51.504;6.300;2022-10-26T02:59:03;22.80;85.40
12477;DHT22;6303;51.504;6.300;2022-10-26T03:01:32;22.80;85.40
12477;DHT22;6303;51.504;6.300;2022-10-26T03:04:01;22.80;85.30
12477;DHT22;6303;51.504;6.300;2022-10-26T03:06:28;22.80;85.30
12477;DHT22;6303;51.504;6.300;2022-10-26T03:08:55;22.80;85.20
12477;DHT22;6303;51.504;6.300;2022-10-26T03:11:22;22.80;85.30
12477;DHT22;6303;51.504;6.300;2022-10-26T03:13:49;22.80;85.30
12477;DHT22;6303;51.504;6.300;2022-10-26T03:16:16;22.80;85.30
12477;DHT22;6303;51.504;6.300;2022-10-26T03:18:44;22.80;85.50
12477;DHT22;6303;51.504;6.300;2022-10-26T03:21:12;22.80;85.50
12477;DHT22;6303;51.504;6.300;2022-10-26T03:23:39;22.80;85.60
12477;DHT22;6303;51.504;6.300;2022-10-26T03:26:06;22.80;85.50
12477;DHT22;6303;51.504;6.300;2022-10-26T03:28:33;22.80;85.60
12477;DHT22;6303;51.504;6.300;2022-10-26T03:31:00;22.80;85.50
12477;DHT22;6303;51.504;6.300;2022-10-26T03:33:27;22.80;85.40
12477;DHT22;6303;51.504;6.300;2022-10-26T03:35:55;22.80;85.50
12477;DHT22;6303;51.504;6.300;2022-10-26T03:38:23;22.80;85.50
12477;DHT22;6303;51.504;6.300;2022-10-26T03:40:51;22.80;85.60
12477;DHT22;6303;51.504;6.300;2022-10-26T03:43:18;22.80;85.60
12477;DHT22;6303;51.504;6.300;2022-10-26T03:45:45;22.80;85.70
12477;DHT22;6303;51.504;6.300;2022-10-26T03:48:13;22.80;85.70
12477;DHT22;6303;51.504;6.300;2022-10-26T03:50:40;22.80;85.60
12477;DHT22;6303;51.504;6.300;2022-10-26T03:53:07;22.80;85.70
12477;DHT22;6303;51.504;6.300;2022-10-26T03:55:36;22.90;85.10
12477;DHT22;6303;51.504;6.300;2022-10-26T03:58:03;22.90;85.10
12477;DHT22;6303;51.504;6.300;2022-10-26T04:00:30;22.90;85.00
12477;DHT22;6303;51.504;6.300;2022-10-26T04:02:58;22.90;85.10
12477;DHT22;6303;51.504;6.300;2022-10-26T04:05:27;22.90;85.00
12477;DHT22;6303;51.504;6.300;2022-10-26T04:07:55;22.90;85.10
12477;DHT22;6303;51.504;6.300;2022-10-26T04:10:22;22.90;84.90
12477;DHT22;6303;51.504;6.300;2022-10-26T04:12:51;22.90;85.90
12477;DHT22;6303;51.504;6.300;2022-10-26T04:15:19;22.80;85.20
12477;DHT22;6303;51.504;6.300;2022-10-26T04:17:47;22.80;85.20
12477;DHT22;6303;51.504;6.300;2022-10-26T04:20:14;22.80;85.30
12477;DHT22;6303;51.504;6.300;2022-10-26T04:22:41;22.90;85.40
12477;DHT22;6303;51.504;6.300;2022-10-26T04:25:09;22.90;85.40
12477;DHT22;6303;51.504;6.300;2022-10-26T04:27:38;22.90;85.30
12477;DHT22;6303;51.504;6.300;2022-10-26T04:30:07;22.90;85.30
12477;DHT22;6303;51.504;6.300;2022-10-26T04:32:35;22.90;85.30
12477;DHT22;6303;51.504;6.300;2022-10-26T04:35:02;22.90;85.10
12477;DHT22;6303;51.504;6.300;2022-10-26T04:37:29;22.90;85.00
12477;DHT22;6303;51.504;6.300;2022-10-26T04:39:56;22.80;85.00
12477;DHT22;6303;51.504;6.300;2022-10-26T04:42:23;22.90;84.80
12477;DHT22;6303;51.504;6.300;2022-10-26T04:44:50;22.90;85.00
12477;DHT22;6303;51.504;6.300;2022-10-26T04:47:18;22.90;84.80
12477;DHT22;6303;51.504;6.300;2022-10-26T04:49:45;22.90;84.80
12477;DHT22;6303;51.504;6.300;2022-10-26T04:52:12;22.90;85.10
12477;DHT22;6303;51.504;6.300;2022-10-26T04:54:39;23.00;86.00
12477;DHT22;6303;51.504;6.300;2022-10-26T04:57:06;23.00;86.20
12477;DHT22;6303;51.504;6.300;2022-10-26T04:59:33;23.00;86.00
12477;DHT22;6303;51.504;6.300;2022-10-26T05:02:00;23.00;85.90
12477;DHT22;6303;51.504;6.300;2022-10-26T05:04:28;23.00;86.10
12477;DHT22;6303;51.504;6.300;2022-10-26T05:06:55;22.90;85.50
12477;DHT22;6303;51.504;6.300;2022-10-26T05:09:22;22.90;85.00
12477;DHT22;6303;51.504;6.300;2022-10-26T05:11:49;23.00;84.50
12477;DHT22;6303;51.504;6.300;2022-10-26T05:14:16;23.00;84.80
12477;DHT22;6303;51.504;6.300;2022-10-26T05:16:43;22.90;84.90
12477;DHT22;6303;51.504;6.300;2022-10-26T05:19:10;22.90;85.10
12477;DHT22;6303;51.504;6.300;2022-10-26T05:21:39;22.90;85.10
12477;DHT22;6303;51.504;6.300;2022-10-26T05:24:06;23.00;84.90
12477;DHT22;6303;51.504;6.300;2022-10-26T05:26:33;22.90;84.60
12477;DHT22;6303;51.504;6.300;2022-10-26T05:29:00;22.90;84.40
12477;DHT22;6303;51.504;6.300;2022-10-26T05:31:27;22.90;84.10
12477;DHT22;6303;51.504;6.300;2022-10-26T05:33:54;23.00;83.90
12477;DHT22;6303;51.504;6.300;2022-10-26T05:36:21;23.00;83.90
12477;DHT22;6303;51.504;6.300;2022-10-26T05:38:50;23.00;83.80
12477;DHT22;6303;51.504;6.300;2022-10-26T05:41:17;23.00;83.50
12477;DHT22;6303;51.504;6.300;2022-10-26T05:43:46;23.00;83.30
12477;DHT22;6303;51.504;6.300;2022-10-26T05:46:13;23.00;83.10
12477;DHT22;6303;51.504;6.300;2022-10-26T05:48:40;23.00;83.20
12477;DHT22;6303;51.504;6.300;2022-10-26T05:51:07;23.00;83.30
12477;DHT22;6303;51.504;6.300;2022-10-26T05:53:35;23.00;83.20
12477;DHT22;6303;51.504;6.300;2022-10-26T05:56:10;23.00;83.10
12477;DHT22;6303;51.504;6.300;2022-10-26T05:58:41;23.00;82.90
12477;DHT22;6303;51.504;6.300;2022-10-26T06:01:16;23.00;82.50
12477;DHT22;6303;51.504;6.300;2022-10-26T06:03:59;23.00;82.30
12477;DHT22;6303;51.504;6.300;2022-10-26T06:06:44;23.00;82.20
12477;DHT22;6303;51.504;6.300;2022-10-26T06:09:13;23.00;82.20
12477;DHT22;6303;51.504;6.300;2022-10-26T06:11:42;23.00;82.00
12477;DHT22;6303;51.504;6.300;2022-10-26T06:14:10;23.00;82.00
12477;DHT22;6303;51.504;6.300;2022-10-26T06:16:43;23.00;81.80
12477;DHT22;6303;51.504;6.300;2022-10-26T06:19:22;23.00;81.50
12477;DHT22;6303;51.504;6.300;2022-10-26T06:21:59;23.00;81.40
12477;DHT22;6303;51.504;6.300;2022-10-26T06:24:34;23.00;81.40
12477;DHT22;6303;51.504;6.300;2022-10-26T06:27:12;23.00;81.40
12477;DHT22;6303;51.504;6.300;2022-10-26T06:29:46;23.00;81.40
12477;DHT22;6303;51.504;6.300;2022-10-26T06:32:15;23.00;81.40
12477;DHT22;6303;51.504;6.300;2022-10-26T06:34:45;23.00;81.20
12477;DHT22;6303;51.504;6.300;2022-10-26T06:37:13;25.50;81.40
12477;DHT22;6303;51.504;6.300;2022-10-26T06:39:44;23.00;79.40
12477;DHT22;6303;51.504;6.300;2022-10-26T06:42:13;23.00;78.80
12477;DHT22;6303;51.504;6.300;2022-10-26T06:44:42;23.00;78.50
12477;DHT22;6303;51.504;6.300;2022-10-26T06:47:13;23.00;77.70
12477;DHT22;6303;51.504;6.300;2022-10-26T06:49:54;23.00;77.60
12477;DHT22;6303;51.504;6.300;2022-10-26T06:52:28;23.00;76.90
12477;DHT22;6303;51.504;6.300;2022-10-26T06:54:58;20.20;74.70
12477;DHT22;6303;51.504;6.300;2022-10-26T06:57:28;23.10;76.20
12477;DHT22;6303;51.504;6.300;2022-10-26T07:00:00;23.10;75.90
12477;DHT22;6303;51.504;6.300;2022-10-26T07:02:28;23.10;75.40
12477;DHT22;6303;51.504;6.300;2022-10-26T07:04:56;23.10;74.70
12477;DHT22;6303;51.504;6.300;2022-10-26T07:07:25;23.20;74.30
12477;DHT22;6303;51.504;6.300;2022-10-26T07:09:53;23.20;73.90
12477;DHT22;6303;51.504;6.300;2022-10-26T07:12:20;23.20;73.50
12477;DHT22;6303;51.504;6.300;2022-10-26T07:14:48;23.20;73.60
12477;DHT22;6303;51.504;6.300;2022-10-26T07:17:15;23.30;73.10
12477;DHT22;6303;51.504;6.300;2022-10-26T07:19:42;23.40;72.90
12477;DHT22;6303;51.504;6.300;2022-10-26T07:22:10;23.50;72.20
12477;DHT22;6303;51.504;6.300;2022-10-26T07:24:38;23.60;72.10
12477;DHT22;6303;51.504;6.300;2022-10-26T07:27:05;23.60;72.00
12477;DHT22;6303;51.504;6.300;2022-10-26T07:29:32;23.60;71.70
12477;DHT22;6303;51.504;6.300;2022-10-26T07:32:01;23.60;71.50
12477;DHT22;6303;51.504;6.300;2022-10-26T07:34:28;23.60;71.50
12477;DHT22;6303;51.504;6.300;2022-10-26T07:36:55;23.50;71.20
12477;DHT22;6303;51.504;6.300;2022-10-26T07:39:22;23.50;71.30
12477;DHT22;6303;51.504;6.300;2022-10-26T07:41:49;23.50;71.40
12477;DHT22;6303;51.504;6.300;2022-10-26T07:44:16;23.50;71.20
12477;DHT22;6303;51.504;6.300;2022-10-26T07:46:43;23.50;71.20
12477;DHT22;6303;51.504;6.300;2022-10-26T07:49:12;23.50;71.10
12477;DHT22;6303;51.504;6.300;2022-10-26T07:51:39;23.60;70.80
12477;DHT22;6303;51.504;6.300;2022-10-26T07:54:06;23.70;70.40
12477;DHT22;6303;51.504;6.300;2022-10-26T07:56:33;23.80;70.00
12477;DHT22;6303;51.504;6.300;2022-10-26T07:59:00;23.90;69.40
12477;DHT22;6303;51.504;6.300;2022-10-26T08:01:27;24.00;69.00
12477;DHT22;6303;51.504;6.300;2022-10-26T08:03:55;24.10;68.40
12477;DHT22;6303;51.504;6.300;2022-10-26T08:06:23;24.20;68.00
12477;DHT22;6303;51.504;6.300;2022-10-26T08:08:50;24.30;67.80
12477;DHT22;6303;51.504;6.300;2022-10-26T08:11:17;24.30;67.50
12477;DHT22;6303;51.504;6.300;2022-10-26T08:13:44;24.20;67.60
12477;DHT22;6303;51.504;6.300;2022-10-26T08:16:12;23.60;67.40
12477;DHT22;6303;51.504;6.300;2022-10-26T08:18:39;25.00;68.50
12477;DHT22;6303;51.504;6.300;2022-10-26T08:21:08;24.20;67.80
12477;DHT22;6303;51.504;6.300;2022-10-26T08:23:38;24.30;67.90
12477;DHT22;6303;51.504;6.300;2022-10-26T08:26:05;24.40;67.60
12477;DHT22;6303;51.504;6.300;2022-10-26T08:28:32;24.50;67.70
12477;DHT22;6303;51.504;6.300;2022-10-26T08:30:59;24.50;67.20
12477;DHT22;6303;51.504;6.300;2022-10-26T08:33:26;24.60;67.10
12477;DHT22;6303;51.504;6.300;2022-10-26T08:35:57;24.60;66.80
12477;DHT22;6303;51.504;6.300;2022-10-26T08:38:24;24.70;66.80
12477;DHT22;6303;51.504;6.300;2022-10-26T08:40:53;24.80;67.20
12477;DHT22;6303;51.504;6.300;2022-10-26T08:43:23;24.80;66.30
12477;DHT22;6303;51.504;6.300;2022-10-26T08:45:56;24.80;66.40
12477;DHT22;6303;51.504;6.300;2022-10-26T08:48:28;24.70;66.50
12477;DHT22;6303;51.504;6.300;2022-10-26T08:50:59;24.70;66.60
12477;DHT22;6303;51.504;6.300;2022-10-26T08:53:31;24.80;66.60
12477;DHT22;6303;51.504;6.300;2022-10-26T08:56:04;24.80;66.00
12477;DHT22;6303;51.504;6.300;2022-10-26T08:58:36;24.90;65.90
12477;DHT22;6303;51.504;6.300;2022-10-26T09:01:04;25.00;65.60
12477;DHT22;6303;51.504;6.300;2022-10-26T09:03:31;25.00;65.20
12477;DHT22;6303;51.504;6.300;2022-10-26T09:06:11;24.90;65.20
12477;DHT22;6303;51.504;6.300;2022-10-26T09:08:49;25.00;65.40
12477;DHT22;6303;51.504;6.300;2022-10-26T09:11:32;25.00;65.00
12477;DHT22;6303;51.504;6.300;2022-10-26T09:14:11;25.10;65.00
12477;DHT22;6303;51.504;6.300;2022-10-26T09:16:44;25.20;65.00
12477;DHT22;6303;51.504;6.300;2022-10-26T09:19:36;25.20;64.70
12477;DHT22;6303;51.504;6.300;2022-10-26T09:22:15;25.20;64.40
12477;DHT22;6303;51.504;6.300;2022-10-26T09:24:50;25.30;64.20
12477;DHT22;6303;51.504;6.300;2022-10-26T09:27:23;25.30;64.20
12477;DHT22;6303;51.504;6.300;2022-10-26T09:29:53;25.30;64.10
12477;DHT22;6303;51.504;6.300;2022-10-26T09:32:24;25.40;63.90
12477;DHT22;6303;51.504;6.300;2022-10-26T09:34:54;25.40;63.80
12477;DHT22;6303;51.504;6.300;2022-10-26T09:37:24;25.40;63.80
12477;DHT22;6303;51.504;6.300;2022-10-26T09:39:57;25.50;63.80
12477;DHT22;6303;51.504;6.300;2022-10-26T09:42:30;25.50;63.70
12477;DHT22;6303;51.504;6.300;2022-10-26T09:45:02;25.50;63.50
12477;DHT22;6303;51.504;6.300;2022-10-26T09:47:34;25.50;63.30
12477;DHT22;6303;51.504;6.300;2022-10-26T09:50:17;25.60;63.30
12477;DHT22;6303;51.504;6.300;2022-10-26T09:52:45;25.60;63.10
12477;DHT22;6303;51.504;6.300;2022-10-26T09:55:13;25.60;63.20
12477;DHT22;6303;51.504;6.300;2022-10-26T09:57:44;25.70;63.20
12477;DHT22;6303;51.504;6.300;2022-10-26T10:00:13;23.40;61.50
12477;DHT22;6303;51.504;6.300;2022-10-26T10:02:42;25.70;63.10
12477;DHT22;6303;51.504;6.300;2022-10-26T10:05:27;25.70;62.80
12477;DHT22;6303;51.504;6.300;2022-10-26T10:08:15;25.80;62.70
12477;DHT22;6303;51.504;6.300;2022-10-26T10:11:02;25.80;62.50
12477;DHT22;6303;51.504;6.300;2022-10-26T10:13:34;25.80;62.50
12477;DHT22;6303;51.504;6.300;2022-10-26T10:16:04;25.80;62.50
12477;DHT22;6303;51.504;6.300;2022-10-26T10:18:32;25.80;62.60
12477;DHT22;6303;51.504;6.300;2022-10-26T10:21:00;25.80;62.60
12477;DHT22;6303;51.504;6.300;2022-10-26T10:23:30;25.80;62.60
12477;DHT22;6303;51.504;6.300;2022-10-26T10:25:59;25.90;62.70
12477;DHT22;6303;51.504;6.300;2022-10-26T10:28:27;25.90;62.90
12477;DHT22;6303;51.504;6.300;2022-10-26T10:30:56;25.90;62.80
12477;DHT22;6303;51.504;6.300;2022-10-26T10:33:39;25.90;62.60
12477;DHT22;6303;51.504;6.300;2022-10-26T10:36:09;26.00;63.20
12477;DHT22;6303;51.504;6.300;2022-10-26T10:38:41;26.00;62.50
12477;DHT22;6303;51.504;6.300;2022-10-26T10:41:27;26.00;62.60
12477;DHT22;6303;51.504;6.300;2022-10-26T10:43:58;26.00;62.70
12477;DHT22;6303;51.504;6.300;2022-10-26T10:46:27;26.00;62.80
12477;DHT22;6303;51.504;6.300;2022-10-26T10:49:01;26.00;62.80
12477;DHT22;6303;51.504;6.300;2022-10-26T10:51:35;26.00;63.00
12477;DHT22;6303;51.504;6.300;2022-10-26T10:54:04;27.00;63.90
12477;DHT22;6303;51.504;6.300;2022-10-26T10:56:34;26.00;63.20
12477;DHT22;6303;51.504;6.300;2022-10-26T10:59:25;25.90;63.10
12477;DHT22;6303;51.504;6.300;2022-10-26T11:02:02;25.90;63.20
12477;DHT22;6303;51.504;6.300;2022-10-26T11:04:50;25.90;63.50
12477;DHT22;6303;51.504;6.300;2022-10-26T11:07:20;25.90;63.40
12477;DHT22;6303;51.504;6.300;2022-10-26T11:09:49;25.80;63.30
12477;DHT22;6303;51.504;6.300;2022-10-26T11:12:22;25.90;63.30
12477;DHT22;6303;51.504;6.300;2022-10-26T11:14:53;25.90;63.40
12477;DHT22;6303;51.504;6.300;2022-10-26T11:17:25;25.90;63.30
12477;DHT22;6303;51.504;6.300;2022-10-26T11:19:55;25.90;63.10
12477;DHT22;6303;51.504;6.300;2022-10-26T11:22:25;25.90;63.10
12477;DHT22;6303;51.504;6.300;2022-10-26T11:24:58;25.90;63.20
12477;DHT22;6303;51.504;6.300;2022-10-26T11:27:29;25.90;63.30
12477;DHT22;6303;51.504;6.300;2022-10-26T11:30:03;25.90;63.40
12477;DHT22;6303;51.504;6.300;2022-10-26T11:32:36;25.90;63.50
12477;DHT22;6303;51.504;6.300;2022-10-26T11:35:13;25.90;63.70
12477;DHT22;6303;51.504;6.300;2022-10-26T11:37:45;25.90;63.70
12477;DHT22;6303;51.504;6.300;2022-10-26T11:40:22;25.90;63.20
12477;DHT22;6303;51.504;6.300;2022-10-26T11:42:58;25.90;63.80
12477;DHT22;6303;51.504;6.300;2022-10-26T11:45:33;25.90;64.00
12477;DHT22;6303;51.504;6.300;2022-10-26T11:48:06;25.90;64.00
12477;DHT22;6303;51.504;6.300;2022-10-26T11:50:40;26.30;64.40
12477;DHT22;6303;51.504;6.300;2022-10-26T11:53:11;25.80;64.00
12477;DHT22;6303;51.504;6.300;2022-10-26T11:55:41;25.80;64.20
12477;DHT22;6303;51.504;6.300;2022-10-26T11:58:09;25.80;64.30
12477;DHT22;6303;51.504;6.300;2022-10-26T12:00:43;25.80;64.60
12477;DHT22;6303;51.504;6.300;2022-10-26T12:03:17;25.70;64.80
12477;DHT22;6303;51.504;6.300;2022-10-26T12:05:49;25.70;64.90
12477;DHT22;6303;51.504;6.300;2022-10-26T12:08:21;25.70;65.10
12477;DHT22;6303;51.504;6.300;2022-10-26T12:10:54;25.70;65.10
12477;DHT22;6303;51.504;6.300;2022-10-26T12:13:28;25.70;65.30
12477;DHT22;6303;51.504;6.300;2022-10-26T12:15:59;25.70;65.40
12477;DHT22;6303;51.504;6.300;2022-10-26T12:18:37;25.80;65.70
12477;DHT22;6303;51.504;6.300;2022-10-26T12:21:07;25.80;65.40
12477;DHT22;6303;51.504;6.300;2022-10-26T12:23:37;25.70;65.50
12477;DHT22;6303;51.504;6.300;2022-10-26T12:29:35;25.60;66.00
12477;DHT22;6303;51.504;6.300;2022-10-26T12:35:30;25.60;66.50
12477;DHT22;6303;51.504;6.300;2022-10-26T12:37:58;25.60;66.90
12477;DHT22;6303;51.504;6.300;2022-10-26T12:40:41;25.60;66.90
12477;DHT22;6303;51.504;6.300;2022-10-26T12:43:34;25.60;66.60
12477;DHT22;6303;51.504;6.300;2022-10-26T12:55:47;25.60;66.90
12477;DHT22;6303;51.504;6.300;2022-10-26T12:58:40;25.60;67.20
12477;DHT22;6303;51.504;6.300;2022-10-26T13:04:45;25.70;67.20
12477;DHT22;6303;51.504;6.300;2022-10-26T13:07:21;25.70;67.10
12477;DHT22;6303;51.504;6.300;2022-10-26T13:09:58;25.60;66.90
12477;DHT22;6303;51.504;6.300;2022-10-26T13:12:28;25.60;66.80
12477;DHT22;6303;51.504;6.300;2022-10-26T13:15:03;25.60;66.80
12477;DHT22;6303;51.504;6.300;2022-10-26T13:17:31;25.60;66.60
12477;DHT22;6303;51.504;6.300;2022-10-26T13:20:00;25.60;66.40
12477;DHT22;6303;51.504;6.300;2022-10-26T13:22:28;25.60;66.80
12477;DHT22;6303;51.504;6.300;2022-10-26T13:24:58;25.60;66.70
12477;DHT22;6303;51.504;6.300;2022-10-26T13:27:43;25.60;66.40
12477;DHT22;6303;51.504;6.300;2022-10-26T13:30:40;25.60;66.30
12477;DHT22;6303;51.504;6.300;2022-10-26T13:33:13;25.60;66.30
12477;DHT22;6303;51.504;6.300;2022-10-26T13:35:42;25.60;66.40
12477;DHT22;6303;51.504;6.300;2022-10-26T13:38:10;25.60;66.10
12477;DHT22;6303;51.504;6.300;2022-10-26T13:40:40;25.50;66.10
12477;DHT22;6303;51.504;6.300;2022-10-26T13:43:15;25.50;66.40
12477;DHT22;6303;51.504;6.300;2022-10-26T13:45:48;25.50;66.30
12477;DHT22;6303;51.504;6.300;2022-10-26T13:48:21;25.40;66.20
12477;DHT22;6303;51.504;6.300;2022-10-26T13:50:52;25.40;66.40
12477;DHT22;6303;51.504;6.300;2022-10-26T13:53:22;25.40;66.30
12477;DHT22;6303;51.504;6.300;2022-10-26T13:55:53;25.40;66.60
12477;DHT22;6303;51.504;6.300;2022-10-26T13:58:30;25.40;66.60
12477;DHT22;6303;51.504;6.300;2022-10-26T14:01:09;25.40;66.50
12477;DHT22;6303;51.504;6.300;2022-10-26T14:03:38;25.40;66.40
12477;DHT22;6303;51.504;6.300;2022-10-26T14:06:07;25.40;66.10
12477;DHT22;6303;51.504;6.300;2022-10-26T14:08:40;25.40;66.00
12477;DHT22;6303;51.504;6.300;2022-10-26T14:11:11;25.40;66.00
12477;DHT22;6303;51.504;6.300;2022-10-26T14:13:40;25.40;66.10
12477;DHT22;6303;51.504;6.300;2022-10-26T14:16:08;25.40;66.20
12477;DHT22;6303;51.504;6.300;2022-10-26T14:18:36;25.40;66.40
12477;DHT22;6303;51.504;6.300;2022-10-26T14:21:06;25.40;66.40
12477;DHT22;6303;51.504;6.300;2022-10-26T14:23:45;25.40;66.20
12477;DHT22;6303;51.504;6.300;2022-10-26T14:26:20;25.40;66.60
12477;DHT22;6303;51.504;6.300;2022-10-26T14:28:49;25.40;66.60
12477;DHT22;6303;51.504;6.300;2022-10-26T14:31:22;25.30;66.40
12477;DHT22;6303;51.504;6.300;2022-10-26T14:33:50;25.30;66.60
12477;DHT22;6303;51.504;6.300;2022-10-26T14:36:19;25.30;66.50
12477;DHT22;6303;51.504;6.300;2022-10-26T14:38:49;25.30;66.70
12477;DHT22;6303;51.504;6.300;2022-10-26T14:41:19;25.30;66.70
12477;DHT22;6303;51.504;6.300;2022-10-26T14:43:47;25.20;67.00
12477;DHT22;6303;51.504;6.300;2022-10-26T14:46:16;25.20;67.50
12477;DHT22;6303;51.504;6.300;2022-10-26T14:48:51;25.20;67.70
12477;DHT22;6303;51.504;6.300;2022-10-26T14:51:20;25.20;68.00
12477;DHT22;6303;51.504;6.300;2022-10-26T14:53:49;25.20;68.20
12477;DHT22;6303;51.504;6.300;2022-10-26T14:56:24;25.10;68.40
12477;DHT22;6303;51.504;6.300;2022-10-26T14:58:54;25.10;68.60
12477;DHT22;6303;51.504;6.300;2022-10-26T15:01:45;25.10;68.60
12477;DHT22;6303;51.504;6.300;2022-10-26T15:04:29;25.10;68.80
12477;DHT22;6303;51.504;6.300;2022-10-26T15:07:14;25.00;68.80
12477;DHT22;6303;51.504;6.300;2022-10-26T15:09:43;25.00;69.10
12477;DHT22;6303;51.504;6.300;2022-10-26T15:12:26;25.00;69.20
12477;DHT22;6303;51.504;6.300;2022-10-26T15:14:55;25.00;69.20
12477;DHT22;6303;51.504;6.300;2022-10-26T15:17:32;25.00;69.40
12477;DHT22;6303;51.504;6.300;2022-10-26T15:20:04;25.00;69.50
12477;DHT22;6303;51.504;6.300;2022-10-26T15:22:33;22.10;67.80
12477;DHT22;6303;51.504;6.300;2022-10-26T15:25:02;25.00;69.70
12477;DHT22;6303;51.504;6.300;2022-10-26T15:27:31;25.00;69.80
12477;DHT22;6303;51.504;6.300;2022-10-26T15:30:15;25.00;69.80
12477;DHT22;6303;51.504;6.300;2022-10-26T15:32:43;25.00;69.90
12477;DHT22;6303;51.504;6.300;2022-10-26T15:37:57;24.90;70.00
12477;DHT22;6303;51.504;6.300;2022-10-26T15:40:26;24.90;70.10
12477;DHT22;6303;51.504;6.300;2022-10-26T15:42:58;24.90;70.30
12477;DHT22;6303;51.504;6.300;2022-10-26T15:45:26;24.90;70.40
12477;DHT22;6303;51.504;6.300;2022-10-26T15:47:56;24.90;70.50
12477;DHT22;6303;51.504;6.300;2022-10-26T15:50:26;24.90;70.40
12477;DHT22;6303;51.504;6.300;2022-10-26T15:53:00;24.90;70.50
12477;DHT22;6303;51.504;6.300;2022-10-26T15:55:28;24.90;70.40
12477;DHT22;6303;51.504;6.300;2022-10-26T15:57:57;24.90;70.60
12477;DHT22;6303;51.504;6.300;2022-10-26T16:00:24;24.90;70.80
12477;DHT22;6303;51.504;6.300;2022-10-26T16:02:51;24.90;70.80
12477;DHT22;6303;51.504;6.300;2022-10-26T16:05:18;24.90;71.00
12477;DHT22;6303;51.504;6.300;2022-10-26T16:07:46;24.90;71.10
12477;DHT22;6303;51.504;6.300;2022-10-26T16:10:17;24.90;71.30
12477;DHT22;6303;51.504;6.300;2022-10-26T16:12:47;24.90;71.60
12477;DHT22;6303;51.504;6.300;2022-10-26T16:15:18;24.90;71.80
12477;DHT22;6303;51.504;6.300;2022-10-26T16:17:46;24.90;72.30
12477;DHT22;6303;51.504;6.300;2022-10-26T16:20:15;24.80;72.50
12477;DHT22;6303;51.504;6.300;2022-10-26T16:22:42;24.90;73.30
12477;DHT22;6303;51.504;6.300;2022-10-26T16:25:14;24.90;73.80
12477;DHT22;6303;51.504;6.300;2022-10-26T16:27:42;24.90;74.20
12477;DHT22;6303;51.504;6.300;2022-10-26T16:30:10;24.90;74.30
12477;DHT22;6303;51.504;6.300;2022-10-26T16:32:40;24.90;74.50
12477;DHT22;6303;51.504;6.300;2022-10-26T16:35:08;24.90;75.00